Time;durP1;ratioP1;P1;durP2;ratioP2;P2;SDS_P1;SDS_P2;PMS_P1;PMS_P2;Temp;Humidity;BMP_temperature;BMP_pressure;BME280_temperature;BME280_humidity;BME280_pressure;Samples;Min_cycle;Max_cycle;Signal;HPM_P1;HPM_P2
2022/06/12 00:01:34;;;;;;;13.65;6.38;;;;;;;15.54;91.86;100226.59;5070897;28;20127;-75
2022/06/12 00:04:02;;;;;;;11.50;6.30;;;;;;;15.44;91.87;100218.19;5071182;27;20052;-75
2022/06/12 00:06:30;;;;;;;12.13;6.60;;;;;;;15.40;92.70;100213.94;5070612;28;20132;-75
2022/06/12 00:08:58;;;;;;;10.65;6.18;;;;;;;15.35;93.19;100215.16;5070438;28;20578;-75
2022/06/12 00:11:28;;;;;;;11.15;6.63;;;;;;;15.44;93.09;100210.03;5070800;28;20406;-74
2022/06/12 00:13:58;;;;;;;12.75;6.53;;;;;;;15.41;92.62;100215.69;5070725;28;20119;-75
2022/06/12 00:16:25;;;;;;;12.60;6.57;;;;;;;15.51;92.71;100219.50;5070618;28;20128;-76
2022/06/12 00:18:54;;;;;;;10.23;6.57;;;;;;;15.58;92.25;100212.63;5070638;28;20042;-75
2022/06/12 00:21:23;;;;;;;11.95;6.22;;;;;;;15.62;92.08;100218.72;5070681;27;20123;-75
2022/06/12 00:23:54;;;;;;;11.15;6.25;;;;;;;15.51;92.07;100219.50;5070204;28;20044;-75
2022/06/12 00:26:26;;;;;;;10.77;6.50;;;;;;;15.52;92.55;100213.06;5071722;28;20054;-75
2022/06/12 00:28:58;;;;;;;10.75;5.95;;;;;;;15.58;92.40;100212.63;5071961;28;20054;-76
2022/06/12 00:31:26;;;;;;;10.77;6.00;;;;;;;15.37;92.83;100209.56;5072099;28;20052;-75
2022/06/12 00:33:53;;;;;;;11.27;6.05;;;;;;;15.58;92.44;100211.78;5070448;28;20127;-75
2022/06/12 00:36:21;;;;;;;12.15;6.28;;;;;;;15.51;92.29;100211.31;5070516;28;20124;-75
2022/06/12 00:38:49;;;;;;;12.52;6.10;;;;;;;15.43;92.08;100203.69;5069850;28;20040;-74
2022/06/12 00:41:16;;;;;;;10.15;6.35;;;;;;;15.27;93.08;100206.63;5053039;27;20464;-75
2022/06/12 00:43:45;;;;;;;12.52;6.18;;;;;;;15.24;93.24;100208.72;5050295;28;20464;-75
2022/06/12 00:46:45;;;;;;;11.63;6.25;;;;;;;15.16;94.12;100193.81;5050327;28;20049;-75
2022/06/12 00:49:17;;;;;;;10.23;5.80;;;;;;;15.15;93.97;100199.34;5050956;28;20069;-75
2022/06/12 00:51:48;;;;;;;11.70;6.18;;;;;;;15.14;94.00;100200.31;5050834;28;20055;-75
2022/06/12 00:54:17;;;;;;;13.88;6.07;;;;;;;15.07;94.11;100197.13;5051311;28;20051;-75
2022/06/12 00:56:49;;;;;;;13.23;7.38;;;;;;;15.20;93.84;100194.44;5050172;28;20071;-75
2022/06/12 00:59:21;;;;;;;13.88;5.85;;;;;;;15.11;93.88;100200.53;5056866;28;20565;-75
2022/06/12 01:01:51;;;;;;;11.57;6.03;;;;;;;15.07;93.86;100203.47;5070345;28;20075;-75
2022/06/12 01:07:06;;;;;;;10.35;6.07;;;;;;;15.18;94.17;100196.41;5070132;28;20084;-75
2022/06/12 01:09:36;;;;;;;11.10;5.57;;;;;;;15.20;93.97;100192.59;5071040;28;20044;-75
2022/06/12 01:12:07;;;;;;;11.32;5.97;;;;;;;15.11;93.75;100193.25;5070003;28;20491;-75
2022/06/12 01:14:41;;;;;;;10.70;6.15;;;;;;;15.15;94.04;100194.78;5069318;28;20048;-75
2022/06/12 01:17:10;;;;;;;15.80;6.57;;;;;;;15.29;94.29;100196.50;5069620;28;20053;-75
2022/06/12 01:19:42;;;;;;;10.57;5.88;;;;;;;15.23;93.78;100201.53;5069762;28;20041;-75
2022/06/12 01:22:35;;;;;;;14.13;6.60;;;;;;;15.10;94.82;100194.25;5070955;27;20049;-74
2022/06/12 01:25:32;;;;;;;12.30;6.47;;;;;;;15.19;94.18;100199.03;5070352;28;20044;-75
2022/06/12 01:28:09;;;;;;;;;;;;;;;15.25;93.92;100199.56;5072064;27;20059;-74
2022/06/12 01:30:42;;;;;;;10.82;6.28;;;;;;;15.21;94.31;100196.19;5069865;28;19920;-75
2022/06/12 01:33:14;;;;;;;12.00;6.78;;;;;;;15.21;94.27;100194.34;5070275;28;20072;-75
2022/06/12 01:35:46;;;;;;;12.05;6.32;;;;;;;15.17;95.02;100192.81;5069804;28;20406;-75
2022/06/12 01:38:19;;;;;;;14.93;7.07;;;;;;;15.14;95.33;100192.16;5070940;27;20089;-75
2022/06/12 01:40:59;;;;;;;13.77;6.90;;;;;;;15.19;95.11;100203.59;5058258;28;20483;-75
2022/06/12 01:43:35;;;;;;;11.60;7.03;;;;;;;14.95;94.01;100201.59;5051009;28;20400;-75
2022/06/12 01:46:08;;;;;;;12.38;6.13;;;;;;;14.76;93.70;100194.69;5051410;28;20051;-75
2022/06/12 01:48:45;;;;;;;11.75;6.47;;;;;;;14.66;94.62;100196.28;5049499;28;20124;-75
2022/06/12 01:51:19;;;;;;;12.70;6.97;;;;;;;14.60;94.30;100199.41;5049425;28;20059;-75
2022/06/12 01:53:53;;;;;;;12.80;7.00;;;;;;;14.70;93.95;100206.00;5052986;28;20041;-75
2022/06/12 01:56:25;;;;;;;12.17;6.87;;;;;;;14.72;93.06;100197.75;5053851;28;20041;-75
2022/06/12 01:58:56;;;;;;;12.13;6.97;;;;;;;14.78;92.23;100198.19;5056678;28;20049;-75
2022/06/12 02:01:30;;;;;;;13.93;6.80;;;;;;;14.72;93.02;100203.19;5072463;28;20048;-75
2022/06/12 02:04:03;;;;;;;11.50;7.30;;;;;;;14.50;94.13;100212.75;5074455;28;20124;-75
2022/06/12 02:06:35;;;;;;;14.57;7.55;;;;;;;14.47;94.36;100208.38;5072390;28;20052;-75
2022/06/12 02:09:08;;;;;;;16.38;7.45;;;;;;;14.60;93.41;100207.56;5073569;28;20048;-75
2022/06/12 02:14:29;;;;;;;12.70;7.22;;;;;;;14.40;94.39;100207.03;5073286;28;20048;-74
2022/06/12 02:17:01;;;;;;;13.02;7.80;;;;;;;14.25;95.57;100205.38;5073578;28;20048;-75
2022/06/12 02:19:33;;;;;;;14.40;7.40;;;;;;;14.32;95.73;100212.13;5073662;28;20052;-75
2022/06/12 02:22:05;;;;;;;13.18;7.70;;;;;;;14.20;96.24;100209.25;5074611;28;20398;-75
2022/06/12 02:24:34;;;;;;;14.40;8.10;;;;;;;14.18;96.04;100211.19;5072552;28;20075;-75
2022/06/12 02:27:04;;;;;;;14.68;7.95;;;;;;;14.26;96.01;100204.38;5072376;28;20051;-75
2022/06/12 02:29:35;;;;;;;12.35;8.10;;;;;;;14.31;96.08;100200.41;5073552;28;20124;-75
2022/06/12 02:32:11;;;;;;;16.17;8.50;;;;;;;14.39;95.65;100202.59;5074187;28;20411;-75
2022/06/12 02:34:41;;;;;;;13.05;8.07;;;;;;;14.38;96.08;100206.28;5073769;28;20073;-75
2022/06/12 02:37:12;;;;;;;13.27;7.88;;;;;;;14.34;96.07;100199.31;5072601;28;20388;-75
2022/06/12 02:39:42;;;;;;;15.68;8.32;;;;;;;14.33;96.14;100200.28;5069166;28;20116;-75
2022/06/12 02:42:14;;;;;;;14.15;8.60;;;;;;;14.34;96.01;100204.75;5053307;28;20410;-75
2022/06/12 02:44:44;;;;;;;13.68;8.52;;;;;;;14.32;96.42;100212.13;5053819;28;20056;-75
2022/06/12 02:47:16;;;;;;;16.13;8.65;;;;;;;14.56;95.75;100214.19;5052431;28;20045;-74
2022/06/12 02:49:46;;;;;;;12.55;8.00;;;;;;;14.57;95.21;100214.06;5052534;28;20037;-74
2022/06/12 02:52:21;;;;;;;16.05;8.93;;;;;;;14.37;96.35;100212.69;5053286;28;20044;-75
2022/06/12 02:54:53;;;;;;;14.65;8.13;;;;;;;14.44;96.77;100216.72;5053405;28;20128;-75
2022/06/12 02:57:30;;;;;;;19.30;8.77;;;;;;;14.37;97.03;100222.69;5052417;28;20055;-75
2022/06/12 03:00:07;;;;;;;15.57;9.23;;;;;;;14.47;96.61;100223.81;5064314;28;20068;-75
2022/06/12 03:02:39;;;;;;;16.85;9.35;;;;;;;14.44;97.01;100224.03;5071854;28;20040;-75
2022/06/12 03:05:11;;;;;;;16.42;9.15;;;;;;;14.38;97.59;100219.88;5071894;28;20218;-75
2022/06/12 03:07:39;;;;;;;15.68;9.55;;;;;;;14.40;97.87;100222.50;5072432;28;20065;-75
2022/06/12 03:10:10;;;;;;;16.00;9.98;;;;;;;14.46;97.68;100235.66;5071851;28;20040;-75
2022/06/12 03:12:37;;;;;;;16.52;10.35;;;;;;;14.56;97.14;100234.06;5071895;28;20041;-75
2022/06/12 03:15:08;;;;;;;15.25;9.57;;;;;;;14.48;97.50;100229.16;5071614;28;20069;-75
2022/06/12 03:17:37;;;;;;;16.23;10.15;;;;;;;14.54;97.96;100222.44;5071972;28;20144;-75
2022/06/12 03:20:06;;;;;;;19.25;10.27;;;;;;;14.61;97.48;100222.91;5071608;28;20045;-75
2022/06/12 03:22:41;;;;;;;16.75;10.55;;;;;;;14.64;97.51;100223.56;5071530;28;20407;-75
2022/06/12 03:25:13;;;;;;;16.42;10.45;;;;;;;14.71;97.49;100228.63;5071886;28;20055;-75
2022/06/12 03:27:51;;;;;;;14.25;9.70;;;;;;;14.69;97.62;100225.97;5072235;28;20045;-75
2022/06/12 03:30:23;;;;;;;15.20;9.65;;;;;;;14.74;97.47;100228.44;5071810;27;20053;-75
2022/06/12 03:32:58;;;;;;;16.50;10.10;;;;;;;14.78;97.53;100208.19;5070318;28;20056;-75
2022/06/12 03:35:38;;;;;;;17.85;10.32;;;;;;;14.81;97.39;100207.09;5071289;28;20108;-75
2022/06/12 03:38:10;;;;;;;14.77;9.50;;;;;;;14.87;97.23;100220.28;5072852;28;20036;-75
2022/06/12 03:40:46;;;;;;;16.25;9.60;;;;;;;14.81;97.44;100220.69;5059540;28;20057;-74
2022/06/12 03:43:19;;;;;;;14.63;9.25;;;;;;;14.83;97.85;100226.91;5051417;28;20395;-75
2022/06/12 03:45:49;;;;;;;15.75;9.45;;;;;;;14.82;97.20;100231.50;5051784;28;20120;-75
2022/06/12 03:48:25;;;;;;;18.13;9.35;;;;;;;14.90;97.19;100230.97;5051929;28;20045;-74
2022/06/12 03:51:01;;;;;;;15.95;9.18;;;;;;;14.84;97.52;100223.22;5052817;28;20051;-75
2022/06/12 03:53:36;;;;;;;15.30;9.20;;;;;;;14.89;97.54;100226.47;5052527;28;20053;-75
2022/06/12 03:59:01;;;;;;;15.35;8.57;;;;;;;14.96;97.74;100230.56;5054715;28;20125;-75
2022/06/12 04:01:31;;;;;;;15.15;8.35;;;;;;;15.00;98.05;100234.78;5071997;28;20127;-75
2022/06/12 04:04:01;;;;;;;14.20;8.18;;;;;;;15.05;97.77;100232.63;5070761;28;20040;-75
2022/06/12 04:06:31;;;;;;;14.30;8.00;;;;;;;15.21;97.82;100237.88;5070594;27;20059;-75
2022/06/12 04:09:03;;;;;;;14.18;7.50;;;;;;;15.41;96.92;100243.75;5071896;28;20123;-75
2022/06/12 04:11:32;;;;;;;12.40;7.45;;;;;;;15.55;96.41;100239.22;5071889;28;20062;-75
2022/06/12 04:14:01;;;;;;;14.05;7.38;;;;;;;15.67;96.35;100253.78;5070728;28;20513;-75
2022/06/12 04:16:32;;;;;;;13.23;6.88;;;;;;;15.87;95.31;100252.34;5069560;28;20127;-75
2022/06/12 04:19:02;;;;;;;11.50;7.07;;;;;;;15.84;96.00;100252.56;5071527;28;20053;-76
2022/06/12 04:21:35;;;;;;;13.95;6.68;;;;;;;15.86;95.35;100250.59;5070830;27;20112;-76
2022/06/12 04:24:07;;;;;;;12.75;6.50;;;;;;;15.93;95.28;100244.66;5072439;28;20049;-76
2022/06/12 04:26:38;;;;;;;12.68;6.22;;;;;;;15.94;94.95;100250.97;5070652;28;20047;-75
2022/06/12 04:29:17;;;;;;;10.77;6.07;;;;;;;15.98;95.36;100255.22;5071068;28;20051;-75
2022/06/12 04:31:47;;;;;;;13.98;7.85;;;;;;;16.07;94.63;100254.53;5069966;28;20123;-75
2022/06/12 04:34:19;;;;;;;15.98;8.27;;;;;;;16.16;94.69;100246.66;5071722;28;20044;-75
2022/06/12 04:36:49;;;;;;;12.65;6.30;;;;;;;16.26;94.41;100252.31;5072047;28;20064;-75
2022/06/12 04:39:19;;;;;;;14.00;5.68;;;;;;;16.40;93.99;100246.72;5069763;28;20403;-76
2022/06/12 04:41:47;;;;;;;13.45;5.93;;;;;;;16.59;93.14;100250.78;5051062;27;20052;-75
2022/06/12 04:44:15;;;;;;;10.20;5.53;;;;;;;16.72;91.80;100257.06;5050143;27;20128;-75
2022/06/12 04:46:44;;;;;;;11.98;5.53;;;;;;;16.76;91.66;100258.56;5050374;27;20048;-75
2022/06/12 04:49:14;;;;;;;10.00;5.50;;;;;;;16.75;91.79;100251.38;5050167;28;20123;-75
2022/06/12 04:51:43;;;;;;;10.77;5.38;;;;;;;16.77;91.76;100256.72;5050123;27;20041;-75
2022/06/12 04:54:11;;;;;;;10.63;4.90;;;;;;;16.92;90.76;100261.00;5049795;27;20056;-77
2022/06/12 04:56:38;;;;;;;10.65;5.40;;;;;;;16.98;90.06;100262.44;5050198;27;20489;-76
2022/06/12 04:59:07;;;;;;;12.82;5.32;;;;;;;17.13;89.83;100262.22;5054862;27;20543;-76
2022/06/12 05:01:35;;;;;;;11.13;5.30;;;;;;;17.18;89.81;100258.16;5070103;28;20045;-75
2022/06/12 05:04:05;;;;;;;10.68;5.30;;;;;;;17.29;89.63;100260.03;5069866;28;20091;-76
2022/06/12 05:06:33;;;;;;;11.15;5.72;;;;;;;17.29;89.55;100253.72;5070181;28;20132;-75
2022/06/12 05:09:03;;;;;;;10.98;5.20;;;;;;;17.27;90.07;100256.53;5070025;27;20051;-74
2022/06/12 05:11:31;;;;;;;13.13;4.80;;;;;;;17.23;90.23;100265.97;5069919;28;20049;-74
2022/06/12 05:13:59;;;;;;;8.90;4.63;;;;;;;17.30;89.62;100261.75;5069629;28;20045;-74
2022/06/12 05:16:31;;;;;;;8.70;4.60;;;;;;;17.44;88.15;100260.69;5069862;28;20044;-75
2022/06/12 05:19:00;;;;;;;8.18;4.30;;;;;;;17.56;87.79;100267.03;5070701;28;20059;-75
2022/06/12 05:21:30;;;;;;;9.23;4.55;;;;;;;17.62;87.55;100266.56;5069850;28;20484;-78
2022/06/12 05:23:58;;;;;;;10.60;4.22;;;;;;;17.66;87.55;100257.13;5071812;28;20132;-74
2022/06/12 05:26:27;;;;;;;12.73;3.97;;;;;;;17.83;86.65;100260.38;5070484;28;20455;-75
2022/06/12 05:28:56;;;;;;;10.68;4.00;;;;;;;17.82;86.57;100261.38;5072945;28;20055;-74
2022/06/12 05:31:23;;;;;;;6.68;3.63;;;;;;;17.99;86.08;100260.03;5073400;28;20052;-75
2022/06/12 05:33:51;;;;;;;6.70;3.53;;;;;;;18.16;85.12;100269.63;5073377;28;20489;-76
2022/06/12 05:36:19;;;;;;;6.88;3.47;;;;;;;18.13;84.87;100269.84;5073262;28;20046;-73
2022/06/12 05:38:47;;;;;;;8.27;3.40;;;;;;;18.21;84.25;100267.38;5073097;28;20579;-73
2022/06/12 05:41:16;;;;;;;5.93;3.13;;;;;;;18.43;83.33;100273.78;5056385;27;20483;-73
2022/06/12 05:43:46;;;;;;;6.40;3.08;;;;;;;18.38;83.29;100270.56;5052704;27;20041;-74
2022/06/12 05:46:16;;;;;;;6.88;3.17;;;;;;;18.41;82.42;100275.78;5053069;27;20069;-73
2022/06/12 05:48:44;;;;;;;5.70;2.78;;;;;;;18.46;81.85;100276.25;5052863;28;20045;-73
2022/06/12 05:51:14;;;;;;;5.93;2.90;;;;;;;18.54;80.82;100279.22;5053123;28;20052;-74
2022/06/12 05:53:42;;;;;;;5.32;2.80;;;;;;;18.55;81.00;100277.38;5052930;28;20049;-73
2022/06/12 05:56:12;;;;;;;6.43;2.83;;;;;;;18.63;80.75;100274.00;5053039;27;20074;-73
2022/06/12 05:58:40;;;;;;;4.93;2.90;;;;;;;18.63;80.07;100268.53;5054303;27;20065;-73
2022/06/12 06:01:12;;;;;;;5.30;2.80;;;;;;;18.77;79.15;100267.38;5073135;27;20127;-73
2022/06/12 06:03:39;;;;;;;4.97;2.55;;;;;;;18.85;79.06;100267.59;5073582;28;20538;-76
2022/06/12 06:06:07;;;;;;;4.93;2.72;;;;;;;18.78;78.96;100263.66;5072548;28;20063;-74
2022/06/12 06:08:35;;;;;;;4.60;2.63;;;;;;;18.94;78.23;100264.06;5072831;28;20040;-73
2022/06/12 06:11:03;;;;;;;6.97;2.50;;;;;;;19.06;76.80;100262.19;5072818;27;20112;-74
2022/06/12 06:13:31;;;;;;;5.45;2.55;;;;;;;19.02;77.11;100260.72;5072439;28;20071;-73
2022/06/12 06:15:58;;;;;;;4.57;2.30;;;;;;;19.01;77.02;100260.84;5072531;28;20123;-76
2022/06/12 06:18:29;;;;;;;3.45;2.20;;;;;;;19.22;76.05;100255.38;5072551;27;20499;-74
2022/06/12 06:20:57;;;;;;;5.15;2.40;;;;;;;19.17;75.04;100265.88;5072504;28;20041;-73
2022/06/12 06:23:25;;;;;;;3.10;2.00;;;;;;;19.22;74.20;100261.75;5072784;27;20069;-73
2022/06/12 06:25:52;;;;;;;4.28;2.13;;;;;;;19.25;72.90;100266.06;5071989;28;20410;-73
2022/06/12 06:28:20;;;;;;;4.70;2.13;;;;;;;19.38;72.83;100261.28;5072486;28;20040;-73
2022/06/12 06:30:48;;;;;;;3.67;2.05;;;;;;;19.46;71.96;100267.97;5072348;28;20119;-73
2022/06/12 06:33:15;;;;;;;5.00;2.20;;;;;;;19.52;71.66;100267.41;5072509;28;20112;-73
2022/06/12 06:35:45;;;;;;;3.33;1.95;;;;;;;19.63;71.19;100264.59;5072286;28;20414;-73
2022/06/12 06:38:13;;;;;;;3.22;2.08;;;;;;;19.63;70.49;100267.34;5071358;28;20498;-76
2022/06/12 06:40:40;;;;;;;2.90;1.92;;;;;;;19.68;70.45;100262.31;5059940;27;20071;-73
2022/06/12 06:43:08;;;;;;;2.45;1.88;;;;;;;19.79;70.16;100266.84;5052284;27;20052;-73
2022/06/12 06:48:22;;;;;;;3.17;1.70;;;;;;;19.81;68.76;100266.72;5052989;28;20056;-73
2022/06/12 06:50:51;;;;;;;2.78;1.70;;;;;;;19.90;67.96;100268.69;5052038;27;20045;-74
2022/06/12 06:53:20;;;;;;;3.92;1.90;;;;;;;20.02;67.69;100263.09;5052103;27;20072;-77
2022/06/12 06:55:48;;;;;;;7.90;1.90;;;;;;;20.09;67.79;100265.16;5051609;27;20041;-73
2022/06/12 06:58:19;;;;;;;2.58;1.73;;;;;;;20.07;66.96;100258.06;5052018;27;20129;-73
2022/06/12 07:00:49;;;;;;;2.97;1.70;;;;;;;20.16;66.42;100259.97;5072495;28;20051;-75
2022/06/12 07:03:17;;;;;;;4.10;2.17;;;;;;;20.18;66.53;100260.69;5071822;28;20077;-78
2022/06/12 07:05:46;;;;;;;3.55;1.80;;;;;;;20.38;66.08;100266.25;5071623;28;20045;-78
2022/06/12 07:08:17;;;;;;;2.65;1.50;;;;;;;20.41;64.35;100266.84;5071724;28;20068;-76
2022/06/12 07:10:45;;;;;;;3.45;1.65;;;;;;;20.36;63.69;100260.03;5068111;28;20044;-78
2022/06/12 07:13:13;;;;;;;4.22;1.88;;;;;;;20.42;63.72;100262.22;5068546;28;20541;-76
2022/06/12 07:15:41;;;;;;;2.78;1.80;;;;;;;20.53;63.47;100261.25;5068311;28;20072;-77
2022/06/12 07:18:10;;;;;;;3.75;1.83;;;;;;;20.50;63.19;100259.63;5068187;28;20052;-77
2022/06/12 07:20:40;;;;;;;3.83;1.70;;;;;;;20.53;62.14;100262.09;5067959;28;20045;-77
2022/06/12 07:23:11;;;;;;;3.08;1.80;;;;;;;20.55;61.72;100260.06;5068706;28;20051;-77
2022/06/12 07:25:43;;;;;;;1.95;1.50;;;;;;;20.65;61.32;100254.63;5068931;28;20089;-77
2022/06/12 07:28:12;;;;;;;3.65;1.77;;;;;;;20.70;61.21;100245.97;5069317;28;20127;-77
2022/06/12 07:30:40;;;;;;;3.13;1.60;;;;;;;20.72;61.24;100252.19;5068100;28;20052;-77
2022/06/12 07:33:08;;;;;;;2.22;1.65;;;;;;;20.80;61.18;100259.72;5067612;28;20123;-77
2022/06/12 07:35:36;;;;;;;3.25;1.80;;;;;;;20.94;60.73;100255.69;5067959;28;20093;-76
2022/06/12 07:38:04;;;;;;;6.18;1.83;;;;;;;21.06;60.47;100256.41;5067910;28;20048;-76
2022/06/12 07:40:35;;;;;;;5.65;1.88;;;;;;;21.19;60.09;100248.72;5059878;27;20063;-75
2022/06/12 07:43:04;;;;;;;3.38;1.65;;;;;;;21.32;60.52;100248.44;5054477;27;20045;-75
2022/06/12 07:45:32;;;;;;;3.08;1.50;;;;;;;21.53;60.58;100245.50;5061627;28;20056;-76
2022/06/12 07:48:00;;;;;;;2.30;1.60;;;;;;;21.55;60.69;100245.38;5061997;28;20502;-76
2022/06/12 07:50:27;;;;;;;1.65;1.38;;;;;;;21.48;60.34;100244.22;5055208;28;20044;-76
2022/06/12 07:52:55;;;;;;;3.65;1.60;;;;;;;21.65;58.29;100246.25;5056499;28;20049;-76
2022/06/12 07:55:23;;;;;;;3.42;1.50;;;;;;;21.57;58.79;100244.19;5048810;27;20045;-76
2022/06/12 07:57:51;;;;;;;2.90;1.63;;;;;;;21.49;58.80;100244.06;5051813;27;20041;-76
2022/06/12 08:00:21;;;;;;;4.38;1.77;;;;;;;21.64;58.12;100243.66;5055559;28;20041;-76
2022/06/12 08:02:49;;;;;;;2.00;1.52;;;;;;;21.64;58.25;100247.25;5056324;28;20136;-76
2022/06/12 08:05:19;;;;;;;2.33;1.60;;;;;;;21.67;57.88;100252.44;5058003;28;20123;-76
2022/06/12 08:07:47;;;;;;;3.10;1.70;;;;;;;21.63;56.83;100248.25;5056669;28;20059;-76
2022/06/12 08:10:15;;;;;;;3.00;1.70;;;;;;;21.54;57.10;100249.97;5060582;28;20067;-76
2022/06/12 08:12:45;;;;;;;3.60;1.58;;;;;;;21.58;57.30;100250.56;5067437;28;20105;-76
2022/06/12 08:15:15;;;;;;;2.80;1.83;;;;;;;21.76;57.46;100252.56;5067114;28;20056;-77
2022/06/12 08:17:45;;;;;;;3.45;1.55;;;;;;;21.87;57.32;100241.41;5067120;28;20702;-77
2022/06/12 08:20:30;;;;;;;6.47;1.90;;;;;;;21.99;57.74;100236.56;5066957;28;20466;-76
2022/06/12 08:23:01;;;;;;;6.28;1.85;;;;;;;22.15;57.61;100246.91;5061248;27;20036;-76
2022/06/12 08:25:30;;;;;;;4.45;1.83;;;;;;;22.00;57.86;100238.28;5060929;28;20064;-76
2022/06/12 08:27:57;;;;;;;3.20;1.80;;;;;;;22.00;58.17;100239.16;5058105;27;20124;-75
2022/06/12 08:30:25;;;;;;;4.25;1.73;;;;;;;22.03;58.69;100243.50;5059037;27;20052;-75
2022/06/12 08:32:55;;;;;;;6.80;1.83;;;;;;;22.09;58.54;100240.16;5060313;27;20472;-75
2022/06/12 08:35:25;;;;;;;5.03;1.80;;;;;;;22.12;58.19;100253.59;5062095;27;20488;-76
2022/06/12 08:37:53;;;;;;;3.03;1.70;;;;;;;22.36;58.01;100251.31;5060973;27;20045;-75
2022/06/12 08:40:29;;;;;;;4.85;1.88;;;;;;;22.47;58.21;100261.28;5061750;27;20128;-76
2022/06/12 08:43:02;;;;;;;6.20;2.08;;;;;;;22.53;58.23;100257.91;5059978;28;20047;-76
2022/06/12 08:45:35;;;;;;;3.42;1.80;;;;;;;22.48;56.71;100247.34;5061038;27;20124;-76
2022/06/12 08:48:09;;;;;;;4.10;1.60;;;;;;;22.48;57.37;100243.75;5058438;28;20100;-75
2022/06/12 08:50:39;;;;;;;2.72;1.70;;;;;;;22.57;57.85;100235.41;5059747;27;20041;-75
2022/06/12 08:53:10;;;;;;;4.03;1.80;;;;;;;22.70;57.11;100239.69;5059372;27;20501;-76
2022/06/12 08:55:41;;;;;;;3.65;1.90;;;;;;;22.92;56.66;100238.34;5060929;27;20402;-76
2022/06/12 08:58:15;;;;;;;3.00;1.70;;;;;;;22.69;55.93;100232.44;5060703;28;20041;-75
2022/06/12 09:00:43;;;;;;;4.18;1.80;;;;;;;22.74;55.80;100234.72;5057681;28;20044;-77
2022/06/12 09:03:16;;;;;;;5.05;1.90;;;;;;;22.87;56.26;100237.97;5057814;27;20037;-76
2022/06/12 09:05:52;;;;;;;4.38;2.03;;;;;;;23.08;55.79;100234.88;5058371;27;20076;-77
2022/06/12 09:08:29;;;;;;;4.63;1.90;;;;;;;23.06;56.13;100231.44;5058845;28;20493;-74
2022/06/12 09:11:03;;;;;;;2.97;1.88;;;;;;;23.25;56.11;100224.03;5060777;28;20475;-77
2022/06/12 09:13:33;;;;;;;5.53;1.90;;;;;;;23.47;55.72;100224.53;5062701;27;20377;-75
2022/06/12 09:16:08;;;;;;;3.63;1.90;;;;;;;23.47;55.23;100224.53;5057622;28;20037;-76
2022/06/12 09:18:46;;;;;;;5.07;1.90;;;;;;;23.54;55.24;100226.47;5057489;27;20499;-75
2022/06/12 09:21:18;;;;;;;4.40;1.90;;;;;;;23.29;54.81;100211.66;5057345;27;20047;-76
2022/06/12 09:23:54;;;;;;;5.22;1.90;;;;;;;23.28;54.23;100208.06;5058670;28;20517;-75
2022/06/12 09:26:26;;;;;;;4.63;2.10;;;;;;;23.62;53.64;100214.66;5058387;27;20115;-76
2022/06/12 09:29:02;;;;;;;3.60;1.92;;;;;;;23.55;53.45;100210.81;5061867;28;20052;-76
2022/06/12 09:31:32;;;;;;;3.13;1.80;;;;;;;23.72;53.41;100209.88;5055660;27;20461;-76
2022/06/12 09:34:06;;;;;;;4.40;1.80;;;;;;;23.85;54.06;100194.75;5049283;27;20052;-76
2022/06/12 09:36:45;;;;;;;3.33;1.85;;;;;;;23.77;53.60;100197.47;5049550;27;20044;-76
2022/06/12 09:39:23;;;;;;;6.28;2.03;;;;;;;23.83;53.79;100191.31;5061622;28;20052;-75
2022/06/12 09:41:56;;;;;;;3.90;1.80;;;;;;;23.89;53.73;100190.66;5069741;28;20036;-76
2022/06/12 09:44:28;;;;;;;6.38;2.20;;;;;;;24.01;52.75;100192.13;5069672;28;20045;-77
2022/06/12 09:47:06;;;;;;;3.40;1.83;;;;;;;24.19;53.70;100190.31;5070776;28;20120;-77
2022/06/12 09:49:40;;;;;;;5.30;1.98;;;;;;;24.15;52.94;100185.13;5070444;28;20059;-75
2022/06/12 09:52:33;;;;;;;5.10;1.95;;;;;;;24.13;51.90;100189.06;5070738;28;20044;-76
2022/06/12 09:55:05;;;;;;;5.13;1.90;;;;;;;24.30;52.70;100181.69;5068306;28;20041;-75
2022/06/12 09:57:38;;;;;;;3.72;1.80;;;;;;;24.18;51.94;100183.06;5067402;28;20051;-75
2022/06/12 10:00:08;;;;;;;5.32;2.00;;;;;;;24.13;51.88;100169.75;5058741;28;20093;-75
2022/06/12 10:02:40;;;;;;;6.35;1.98;;;;;;;24.09;51.67;100166.47;5056440;27;20036;-74
2022/06/12 10:05:17;;;;;;;4.78;1.88;;;;;;;24.30;51.53;100170.66;5056306;27;20072;-75
2022/06/12 10:07:48;;;;;;;4.15;2.20;;;;;;;24.33;51.87;100159.28;5056273;27;20056;-74
2022/06/12 10:10:23;;;;;;;3.97;2.10;;;;;;;24.40;51.33;100160.34;5057970;27;20061;-74
2022/06/12 10:12:54;;;;;;;7.15;2.10;;;;;;;24.64;51.85;100153.13;5056345;28;20045;-74
2022/06/12 10:15:26;;;;;;;4.18;1.90;;;;;;;24.71;51.89;100169.91;5061860;28;20542;-77
2022/06/12 10:17:57;;;;;;;3.15;1.88;;;;;;;24.90;51.96;100165.09;5062576;27;20112;-75
2022/06/12 10:20:32;;;;;;;5.65;1.85;;;;;;;24.91;51.84;100153.00;5063296;27;20571;-76
2022/06/12 10:23:00;;;;;;;2.42;1.73;;;;;;;24.38;51.60;100153.28;5064615;28;20044;-76
2022/06/12 10:25:33;;;;;;;5.80;2.13;;;;;;;24.09;52.31;100146.28;5064664;28;20052;-77
2022/06/12 10:28:03;;;;;;;4.47;2.20;;;;;;;24.26;51.08;100147.19;5063210;28;20102;-77
2022/06/12 10:30:37;;;;;;;6.07;2.22;;;;;;;24.34;52.05;100140.84;5065251;27;20112;-71
2022/06/12 10:33:26;;;;;;;5.28;2.30;;;;;;;24.21;52.08;100150.47;5063770;28;20058;-76
2022/06/12 10:35:58;;;;;;;5.07;2.03;;;;;;;24.53;51.81;100135.00;5064821;27;20060;-74
2022/06/12 10:38:27;;;;;;;5.22;2.30;;;;;;;24.69;51.35;100142.44;5065167;28;20052;-73
2022/06/12 10:41:00;;;;;;;7.47;2.53;;;;;;;24.71;50.97;100137.59;5061335;28;20044;-73
2022/06/12 10:43:35;;;;;;;8.32;2.60;;;;;;;24.82;50.85;100135.56;5064350;28;20041;-76
2022/06/12 10:46:08;;;;;;;6.38;2.80;;;;;;;25.01;51.12;100131.59;5062176;28;20053;-74
2022/06/12 10:48:37;;;;;;;5.10;2.40;;;;;;;25.13;51.17;100132.97;5062326;27;20045;-74
2022/06/12 10:51:22;;;;;;;5.07;2.40;;;;;;;24.97;50.69;100121.91;5062303;27;20051;-75
2022/06/12 10:53:58;;;;;;;6.25;2.40;;;;;;;24.98;50.12;100124.53;5066165;27;20060;-73
2022/06/12 10:56:32;;;;;;;10.18;2.58;;;;;;;25.18;50.98;100115.84;5060047;27;20049;-76
2022/06/12 10:59:24;;;;;;;5.25;2.38;;;;;;;25.32;50.58;100114.25;5063301;28;20048;-75
2022/06/12 11:01:59;;;;;;;5.95;2.38;;;;;;;25.27;50.23;100111.16;5058891;27;20062;-83
2022/06/12 11:04:36;;;;;;;7.03;2.65;;;;;;;25.37;50.50;100110.97;5071857;28;20537;-83
2022/06/12 11:07:17;;;;;;;7.93;2.45;;;;;;;25.59;49.93;100103.84;5072066;28;20071;-82
2022/06/12 11:10:01;;;;;;;6.80;2.60;;;;;;;25.64;50.03;100104.19;5072559;28;20119;-82
2022/06/12 11:12:38;;;;;;;4.40;2.30;;;;;;;25.72;50.23;100103.28;5072467;28;20486;-80
2022/06/12 11:15:22;;;;;;;6.57;2.30;;;;;;;25.68;50.20;100105.53;5071749;28;20132;-73
2022/06/12 11:18:00;;;;;;;7.10;2.58;;;;;;;25.93;50.52;100108.22;5071809;28;20048;-76
2022/06/12 11:20:33;;;;;;;5.90;2.22;;;;;;;25.93;50.20;100102.69;5072402;28;20115;-76
2022/06/12 11:23:16;;;;;;;6.65;2.38;;;;;;;25.95;49.14;100102.47;5068511;28;20059;-77
2022/06/12 11:25:56;;;;;;;4.05;2.40;;;;;;;25.68;47.11;100097.25;5068755;28;20059;-76
2022/06/12 11:28:34;;;;;;;5.88;2.63;;;;;;;25.73;48.46;100094.81;5068592;28;20056;-75
2022/06/12 11:31:09;;;;;;;8.98;2.42;;;;;;;25.59;49.24;100098.31;5064612;28;20063;-74
2022/06/12 11:33:53;;;;;;;8.23;4.88;;;;;;;25.30;48.69;100095.13;5057080;28;20052;-74
2022/06/12 11:36:28;;;;;;;6.97;2.97;;;;;;;25.53;49.53;100093.53;5057443;28;20123;-74
2022/06/12 11:39:21;;;;;;;7.22;2.58;;;;;;;25.78;49.56;100082.34;5058742;27;20048;-74
2022/06/12 11:42:01;;;;;;;4.65;2.40;;;;;;;25.72;48.02;100093.06;5060872;27;20060;-74
2022/06/12 11:44:41;;;;;;;5.18;2.40;;;;;;;25.75;47.25;100080.81;5057343;28;20056;-74
2022/06/12 11:47:19;;;;;;;6.43;2.38;;;;;;;25.41;47.25;100080.03;5059657;27;20051;-74
2022/06/12 11:49:57;;;;;;;4.03;2.33;;;;;;;25.56;47.54;100076.56;5056203;28;20044;-74
2022/06/12 11:52:34;;;;;;;5.63;2.40;;;;;;;25.61;47.20;100076.88;5058191;28;20040;-74
2022/06/12 11:55:14;;;;;;;6.60;2.50;;;;;;;25.54;48.02;100068.44;5060640;28;20048;-74